Time;durP1;ratioP1;P1;durP2;ratioP2;P2;SDS_P1;SDS_P2;PMS_P1;PMS_P2;Temp;Humidity;BMP_temperature;BMP_pressure;BME280_temperature;BME280_humidity;BME280_pressure;Samples;Min_cycle;Max_cycle;Signal;HPM_P1;HPM_P2
2022/08/06 00:01:16;;;;;;;6.63;2.08;;;;;;;18.58;54.75;100884.53;4960551;28;20058;-62
2022/08/06 00:04:00;;;;;;;5.65;1.83;;;;;;;18.58;54.86;100889.78;4975586;28;20049;-61
2022/08/06 00:06:44;;;;;;;4.72;2.05;;;;;;;18.58;54.61;100879.28;4975628;28;20509;-61
2022/08/06 00:09:30;;;;;;;3.72;1.70;;;;;;;18.55;54.60;100890.63;4975276;28;20054;-61
2022/08/06 00:12:14;;;;;;;4.72;1.83;;;;;;;18.55;54.76;100895.88;4960914;28;20097;-61
2022/08/06 00:15:02;;;;;;;7.45;3.15;;;;;;;18.55;54.96;100895.88;4975497;28;20131;-61
2022/08/06 00:17:47;;;;;;;4.63;1.85;;;;;;;18.53;54.76;100895.91;4960503;28;20049;-61
2022/08/06 00:20:34;;;;;;;5.75;1.70;;;;;;;18.51;54.65;100897.66;4974407;28;20057;-61
2022/08/06 00:23:18;;;;;;;5.90;1.65;;;;;;;18.50;54.68;100888.03;4960621;28;20098;-61
2022/08/06 00:26:02;;;;;;;3.30;1.60;;;;;;;18.47;54.56;100890.66;4975154;28;20177;-60
2022/08/06 00:28:50;;;;;;;4.65;1.85;;;;;;;18.45;54.64;100897.66;4975226;28;20050;-61
2022/08/06 00:31:36;;;;;;;5.25;1.80;;;;;;;18.44;54.71;100897.69;4960465;28;20418;-60
2022/08/06 00:34:24;;;;;;;6.53;2.17;;;;;;;18.41;54.74;100902.06;4974787;28;20077;-62
2022/08/06 00:37:08;;;;;;;4.13;1.73;;;;;;;18.38;54.67;100894.19;4974068;28;20532;-62
2022/08/06 00:41:58;;;;;;;4.15;1.80;;;;;;;18.36;54.70;100902.94;5111528;27;20257;-60
2022/08/06 00:44:45;;;;;;;3.80;1.77;;;;;;;18.32;54.76;100901.19;5111660;28;20402;-62
2022/08/06 00:47:29;;;;;;;4.13;1.70;;;;;;;18.29;54.95;100901.22;5111280;28;20051;-61
2022/08/06 00:50:14;;;;;;;3.53;1.98;;;;;;;18.26;54.85;100897.72;5111428;28;20085;-62
2022/08/06 00:53:00;;;;;;;6.65;1.95;;;;;;;18.26;54.40;100907.34;5111232;28;20112;-61
2022/08/06 00:55:44;;;;;;;5.00;1.85;;;;;;;18.21;54.70;100907.34;5110493;28;20131;-61
2022/08/06 00:58:28;;;;;;;3.42;1.63;;;;;;;18.18;54.82;100904.72;5110231;28;20062;-61
2022/08/06 01:01:12;;;;;;;6.35;1.50;;;;;;;18.15;54.82;100907.34;5111101;28;20089;-62
2022/08/06 01:03:56;;;;;;;5.50;2.38;;;;;;;18.12;54.70;100912.63;5110890;28;20448;-61
2022/08/06 01:06:40;;;;;;;5.47;2.40;;;;;;;18.08;54.84;100913.50;5111174;28;20521;-61
2022/08/06 01:09:25;;;;;;;6.15;2.20;;;;;;;18.06;54.78;100917.88;5110036;28;20522;-60
2022/08/06 01:12:09;;;;;;;5.95;2.13;;;;;;;18.03;54.81;100924.00;5110172;28;20131;-60
2022/08/06 01:14:53;;;;;;;7.15;2.08;;;;;;;18.00;54.83;100928.34;5110841;28;20050;-60
2022/08/06 01:17:46;;;;;;;4.45;2.03;;;;;;;17.96;54.76;100927.44;5110936;28;20094;-59
2022/08/06 01:21:05;;;;;;;2.22;1.70;;;;;;;17.95;54.76;100933.56;5109666;28;20575;-60
2022/08/06 01:23:58;;;;;;;4.15;1.90;;;;;;;17.93;55.04;100930.97;5109959;28;20046;-60
2022/08/06 01:27:19;;;;;;;4.57;2.10;;;;;;;17.92;54.80;100930.94;5109905;28;20047;-59
2022/08/06 01:30:08;;;;;;;6.18;1.70;;;;;;;17.91;54.82;100937.94;5110517;28;20090;-60
2022/08/06 01:33:02;;;;;;;11.55;2.38;;;;;;;17.91;55.09;100932.72;5109564;28;20066;-60
2022/08/06 01:35:55;;;;;;;6.32;2.20;;;;;;;17.89;54.97;100937.06;5109732;28;20046;-60
2022/08/06 01:38:44;;;;;;;4.15;2.28;;;;;;;17.87;55.07;100928.31;5109726;28;20058;-60
2022/08/06 01:41:51;;;;;;;4.97;1.95;;;;;;;17.87;54.84;100936.19;5108951;28;20497;-59
2022/08/06 01:44:39;;;;;;;5.57;2.05;;;;;;;17.83;54.87;100942.31;5109444;28;20127;-60
2022/08/06 01:47:25;;;;;;;4.75;2.10;;;;;;;17.79;54.93;100949.31;5109407;28;20105;-60
2022/08/06 01:50:10;;;;;;;5.68;2.28;;;;;;;17.74;54.93;100943.19;5110122;28;20051;-60
2022/08/06 01:53:00;;;;;;;5.22;2.10;;;;;;;17.72;54.96;100944.06;5098123;28;20058;-60
2022/08/06 01:55:48;;;;;;;6.45;2.35;;;;;;;17.69;54.96;100942.31;5095666;28;20051;-60
2022/08/06 01:58:41;;;;;;;5.20;2.03;;;;;;;17.67;54.80;100944.06;5096447;28;20090;-60
2022/08/06 02:01:27;;;;;;;5.85;2.47;;;;;;;17.65;54.94;100954.56;5095136;28;20097;-60
2022/08/06 02:04:14;;;;;;;3.22;1.88;;;;;;;17.63;54.88;100951.06;5097063;28;20144;-59
2022/08/06 02:07:03;;;;;;;5.03;2.47;;;;;;;17.59;55.09;100951.06;5095973;28;20098;-62
2022/08/06 02:09:49;;;;;;;9.68;2.95;;;;;;;17.57;55.04;100952.78;5096520;28;20078;-60
2022/08/06 02:12:36;;;;;;;4.35;2.40;;;;;;;17.55;55.00;100950.16;5096617;28;20102;-60
2022/08/06 02:15:26;;;;;;;5.57;2.20;;;;;;;17.52;54.87;100957.13;5095380;28;20130;-60
2022/08/06 02:18:11;;;;;;;6.63;2.15;;;;;;;17.50;54.96;100950.16;5095299;28;20472;-61
2022/08/06 02:20:59;;;;;;;5.63;2.45;;;;;;;17.49;54.98;100947.53;5095283;28;20427;-60
2022/08/06 02:23:45;;;;;;;11.02;3.78;;;;;;;17.49;55.18;100947.53;5095116;28;20073;-60
2022/08/06 02:26:30;;;;;;;3.60;1.88;;;;;;;17.47;55.24;100950.13;5095047;28;20127;-60
2022/08/06 02:29:18;;;;;;;6.47;2.30;;;;;;;17.47;55.01;100949.28;5095099;28;20108;-60
2022/08/06 02:32:05;;;;;;;8.60;2.88;;;;;;;17.47;55.00;100957.13;5095067;28;20147;-60
2022/08/06 02:34:52;;;;;;;5.40;2.35;;;;;;;17.45;55.00;100956.25;5094773;28;20597;-59
2022/08/06 02:37:46;;;;;;;4.03;2.50;;;;;;;17.43;55.09;100958.88;5095165;28;20047;-62
2022/08/06 02:40:37;;;;;;;7.10;2.90;;;;;;;17.41;55.32;100957.09;5094668;28;20280;-60
2022/08/06 02:43:27;;;;;;;4.80;2.58;;;;;;;17.39;55.04;100957.13;5095794;28;20138;-60
2022/08/06 02:46:24;;;;;;;5.30;2.10;;;;;;;17.36;54.93;100957.09;5095551;28;20051;-60
2022/08/06 02:49:21;;;;;;;3.95;2.00;;;;;;;17.37;54.99;100957.97;5095636;28;20517;-59
2022/08/06 02:52:19;;;;;;;9.15;2.30;;;;;;;17.32;55.02;100953.63;5094617;28;20170;-60
2022/08/06 02:55:27;;;;;;;6.68;2.50;;;;;;;17.32;55.12;100961.47;5095487;28;20063;-60
2022/08/06 02:58:17;;;;;;;4.22;2.08;;;;;;;17.32;55.10;100951.00;5094510;28;20105;-61
2022/08/06 03:01:06;;;;;;;8.52;2.83;;;;;;;17.32;54.97;100944.88;5094136;28;20043;-60
2022/08/06 03:03:53;;;;;;;6.32;2.28;;;;;;;17.31;55.18;100948.34;5093442;28;20051;-60
2022/08/06 03:06:40;;;;;;;5.57;2.33;;;;;;;17.32;55.33;100950.09;5094373;28;20047;-60
2022/08/06 03:09:25;;;;;;;6.50;2.95;;;;;;;17.31;55.39;100956.22;5093866;28;20055;-60
2022/08/06 03:12:12;;;;;;;10.05;2.50;;;;;;;17.30;55.31;100957.06;5095193;28;20108;-59
2022/08/06 03:14:59;;;;;;;4.35;1.95;;;;;;;17.30;55.41;100955.34;5094107;28;20117;-63
2022/08/06 03:17:47;;;;;;;7.68;2.58;;;;;;;17.30;55.45;100955.34;5094188;28;20058;-62
2022/08/06 03:20:34;;;;;;;6.75;1.95;;;;;;;17.30;55.34;100957.06;5094018;28;20075;-62
2022/08/06 03:23:22;;;;;;;5.68;2.67;;;;;;;17.27;55.32;100960.56;5094049;28;20051;-60
2022/08/06 03:26:10;;;;;;;4.47;2.30;;;;;;;17.25;55.48;100956.22;5093852;28;20114;-61
2022/08/06 03:28:58;;;;;;;3.67;2.25;;;;;;;17.22;55.42;100967.53;5094878;28;20096;-61
2022/08/06 03:31:42;;;;;;;3.75;2.20;;;;;;;17.19;55.41;100972.78;5093541;28;20105;-62
2022/08/06 03:34:29;;;;;;;5.55;2.63;;;;;;;17.18;55.21;100968.41;5093410;28;20106;-60
2022/08/06 03:37:20;;;;;;;7.18;2.00;;;;;;;17.15;55.22;100971.03;5093409;28;20552;-61
2022/08/06 03:40:07;;;;;;;9.13;2.75;;;;;;;17.12;55.44;100973.63;5094264;28;20078;-61
2022/08/06 03:42:51;;;;;;;8.45;3.22;;;;;;;17.10;55.54;100971.00;5093535;28;20050;-61
2022/08/06 03:45:38;;;;;;;3.90;2.20;;;;;;;17.09;55.47;100969.25;5094308;28;20132;-61
2022/08/06 03:48:26;;;;;;;4.78;2.17;;;;;;;17.07;55.57;100976.22;5093555;28;20074;-62
2022/08/06 03:51:20;;;;;;;7.60;2.42;;;;;;;17.08;55.48;100972.75;5093575;28;20468;-61
2022/08/06 03:54:06;;;;;;;5.45;2.47;;;;;;;17.08;55.52;100971.84;5093636;28;20093;-61
2022/08/06 03:56:57;;;;;;;7.70;3.55;;;;;;;17.07;55.56;100970.09;5093397;28;20101;-62
2022/08/06 03:59:43;;;;;;;8.35;3.00;;;;;;;17.06;55.68;100974.47;5093589;28;20043;-61
2022/08/06 04:02:37;;;;;;;5.45;2.47;;;;;;;17.05;55.54;100980.56;5093253;28;20051;-61
2022/08/06 04:05:27;;;;;;;8.05;2.70;;;;;;;17.02;55.63;100976.22;5093278;28;20051;-61
2022/08/06 04:08:12;;;;;;;17.48;3.33;;;;;;;17.00;55.95;100984.91;5093081;28;20047;-61
2022/08/06 04:10:57;;;;;;;6.45;2.75;;;;;;;16.98;55.66;100982.31;5092924;28;20070;-61
2022/08/06 04:13:43;;;;;;;5.80;2.10;;;;;;;16.97;55.69;100984.94;5094145;28;20046;-61
2022/08/06 04:16:31;;;;;;;6.60;2.60;;;;;;;16.95;55.73;100987.50;5092943;28;20089;-61
2022/08/06 04:19:18;;;;;;;6.68;2.65;;;;;;;16.95;55.46;100982.28;5093869;28;20046;-61
2022/08/06 04:22:03;;;;;;;8.70;3.00;;;;;;;16.93;55.62;100989.22;5094035;28;20051;-61
2022/08/06 04:24:50;;;;;;;4.72;2.70;;;;;;;16.92;55.79;100983.97;5092882;28;20526;-61
2022/08/06 04:27:37;;;;;;;4.65;2.75;;;;;;;16.90;55.90;100989.19;5093010;28;20047;-61
2022/08/06 04:30:23;;;;;;;4.97;2.38;;;;;;;16.89;55.93;100990.09;5092945;28;20098;-60
2022/08/06 04:33:12;;;;;;;3.80;2.28;;;;;;;16.87;55.88;100986.59;5093164;28;20047;-60
2022/08/06 04:36:00;;;;;;;8.48;2.65;;;;;;;16.87;55.63;100997.91;5092950;28;20070;-61
2022/08/06 04:38:45;;;;;;;4.13;2.47;;;;;;;16.87;55.77;101002.28;5092808;28;20043;-61
2022/08/06 04:41:32;;;;;;;4.45;2.42;;;;;;;16.85;55.88;100998.78;5092346;28;20074;-59
2022/08/06 04:44:20;;;;;;;7.88;2.90;;;;;;;16.83;55.95;101001.38;5092686;28;20066;-59
2022/08/06 04:47:05;;;;;;;4.65;2.80;;;;;;;16.82;55.92;101002.25;5092491;28;20050;-61
2022/08/06 04:49:48;;;;;;;;;;;;;;;16.79;55.79;100998.75;5093867;28;20043;-59
2022/08/06 04:52:33;;;;;;;4.22;2.42;;;;;;;16.75;55.80;101011.81;5093616;28;19941;-61
2022/08/06 04:55:20;;;;;;;4.68;2.42;;;;;;;16.75;55.83;101018.78;5092466;28;20075;-62
2022/08/06 04:58:07;;;;;;;12.80;3.35;;;;;;;16.71;55.90;101017.91;5093049;28;20046;-61
2022/08/06 05:00:54;;;;;;;9.15;3.10;;;;;;;16.68;56.00;101020.50;5092523;28;20066;-60
2022/08/06 05:03:42;;;;;;;8.95;2.72;;;;;;;16.66;55.93;101022.22;5093390;28;20055;-60
2022/08/06 05:06:47;;;;;;;4.75;2.38;;;;;;;16.64;55.90;101016.09;5093361;28;20047;-59
2022/08/06 05:09:33;;;;;;;4.15;2.58;;;;;;;16.63;55.74;101016.97;5092540;28;20051;-60
2022/08/06 05:12:42;;;;;;;6.13;2.75;;;;;;;16.62;55.84;101023.06;5092579;28;20572;-60
2022/08/06 05:15:40;;;;;;;6.18;3.42;;;;;;;16.62;55.83;101030.91;5093306;28;20066;-61
2022/08/06 05:18:30;;;;;;;6.07;2.65;;;;;;;16.63;55.93;101034.44;5093441;28;20047;-59
2022/08/06 05:21:25;;;;;;;3.85;2.60;;;;;;;16.62;56.02;101033.53;5092273;28;20050;-61
2022/08/06 05:24:09;;;;;;;5.22;3.22;;;;;;;16.63;55.99;101035.28;5092458;28;20058;-60
2022/08/06 05:26:56;;;;;;;6.55;3.00;;;;;;;16.64;55.98;101038.78;5094095;28;20051;-59
2022/08/06 05:29:46;;;;;;;6.07;3.17;;;;;;;16.64;55.66;101042.28;5096273;28;20188;-60
2022/08/06 05:32:30;;;;;;;5.25;2.95;;;;;;;16.64;55.96;101042.28;5097188;28;20047;-60
2022/08/06 05:35:17;;;;;;;9.13;3.10;;;;;;;16.67;56.12;101046.66;5097135;28;20583;-60
2022/08/06 05:38:01;;;;;;;6.85;3.47;;;;;;;16.67;56.22;101044.91;5096772;28;20085;-59
2022/08/06 05:40:45;;;;;;;7.15;2.90;;;;;;;16.69;56.27;101048.44;5096322;28;20465;-59
2022/08/06 05:43:34;;;;;;;8.73;3.35;;;;;;;16.69;56.36;101051.03;5096886;28;20066;-60
2022/08/06 05:46:26;;;;;;;7.32;3.05;;;;;;;16.72;56.26;101048.47;5095521;28;20051;-59
2022/08/06 05:49:24;;;;;;;6.18;3.20;;;;;;;16.74;56.35;101057.16;5095857;28;20055;-59
2022/08/06 05:52:25;;;;;;;7.63;3.60;;;;;;;16.75;56.54;101058.91;5095388;28;20448;-59
2022/08/06 05:55:37;;;;;;;6.65;3.42;;;;;;;16.79;56.50;101062.47;5096421;28;20047;-60
2022/08/06 05:58:44;;;;;;;8.07;3.47;;;;;;;16.81;56.54;101065.06;5096216;28;20085;-59
2022/08/06 06:01:30;;;;;;;5.40;2.83;;;;;;;16.83;56.73;101063.34;5096340;28;20039;-60
2022/08/06 06:04:18;;;;;;;10.60;4.10;;;;;;;16.86;56.77;101060.75;5096325;28;20051;-59
2022/08/06 06:07:06;;;;;;;10.40;3.05;;;;;;;16.88;57.02;101062.50;5095148;28;20128;-60
2022/08/06 06:09:55;;;;;;;9.10;3.35;;;;;;;16.92;57.14;101058.16;5095516;28;20096;-59
2022/08/06 06:12:46;;;;;;;4.97;3.13;;;;;;;16.95;57.05;101065.19;5096153;28;20508;-60
2022/08/06 06:15:39;;;;;;;8.13;3.00;;;;;;;16.97;56.97;101066.94;5095617;28;20074;-59
2022/08/06 06:18:43;;;;;;;7.07;3.50;;;;;;;16.99;56.94;101067.84;5096055;28;20119;-59
2022/08/06 06:22:04;;;;;;;7.75;3.10;;;;;;;17.02;57.12;101069.59;5095132;28;20043;-59
2022/08/06 06:25:09;;;;;;;10.38;3.25;;;;;;;17.01;57.35;101071.34;5084765;28;20043;-60
2022/08/06 06:28:17;;;;;;;6.88;3.65;;;;;;;17.03;57.24;101068.72;5095207;28;20074;-61
2022/08/06 06:31:20;;;;;;;11.10;3.67;;;;;;;17.06;57.36;101071.38;5095930;28;20081;-62
2022/08/06 06:34:16;;;;;;;6.43;2.70;;;;;;;17.10;57.22;101078.38;5095873;28;20449;-62
2022/08/06 06:37:14;;;;;;;6.95;3.30;;;;;;;17.10;57.20;101077.50;5095614;28;20051;-61
2022/08/06 06:40:33;;;;;;;6.82;2.63;;;;;;;17.12;57.21;101081.00;5094485;28;20464;-61
2022/08/06 06:43:29;;;;;;;6.65;2.85;;;;;;;17.15;57.50;101081.03;5095531;28;20055;-61
2022/08/06 06:46:18;;;;;;;7.55;3.42;;;;;;;17.17;57.41;101089.78;5095494;28;20124;-61
2022/08/06 06:49:29;;;;;;;8.15;3.28;;;;;;;17.20;57.25;101089.78;5094371;28;20097;-61
2022/08/06 06:52:36;;;;;;;8.00;3.20;;;;;;;17.23;57.41;101086.31;5094393;28;20075;-61
2022/08/06 06:56:00;;;;;;;8.68;3.15;;;;;;;17.25;57.63;101093.28;5094652;28;20043;-61
2022/08/06 06:59:26;;;;;;;5.85;3.05;;;;;;;17.26;57.71;101092.41;5071676;28;20522;-61
2022/08/06 07:02:21;;;;;;;10.13;3.20;;;;;;;17.28;57.62;101092.44;5052879;28;20049;-61
2022/08/06 07:05:08;;;;;;;8.68;2.40;;;;;;;17.29;57.70;101088.94;5094375;28;20050;-61
2022/08/06 07:07:54;;;;;;;8.70;3.05;;;;;;;17.29;57.58;101095.06;5094056;28;20071;-61
2022/08/06 07:10:39;;;;;;;13.13;2.67;;;;;;;17.31;57.72;101098.56;5094261;28;20051;-61
2022/08/06 07:13:30;;;;;;;9.32;2.85;;;;;;;17.30;57.71;101104.69;5094206;28;20055;-61
2022/08/06 07:16:21;;;;;;;5.00;2.10;;;;;;;17.32;57.86;101112.53;5095072;28;20046;-61
2022/08/06 07:19:15;;;;;;;7.07;2.78;;;;;;;17.33;57.64;101114.28;5094765;28;20450;-61
2022/08/06 07:22:04;;;;;;;7.33;2.67;;;;;;;17.35;57.65;101104.69;5094143;28;20079;-61
2022/08/06 07:24:57;;;;;;;7.15;2.75;;;;;;;17.36;57.69;101103.81;5094894;28;20282;-61
2022/08/06 07:27:48;;;;;;;4.72;2.50;;;;;;;17.38;57.85;101104.72;5094697;28;20051;-61
2022/08/06 07:30:37;;;;;;;9.18;2.60;;;;;;;17.39;57.70;101114.31;5094280;28;20059;-61
2022/08/06 07:33:24;;;;;;;10.32;3.28;;;;;;;17.41;57.92;101115.22;5093912;28;20090;-61
2022/08/06 07:36:09;;;;;;;9.95;3.05;;;;;;;17.45;57.76;101113.47;5093878;28;20134;-62
2022/08/06 07:39:00;;;;;;;7.75;2.40;;;;;;;17.47;57.89;101117.84;5093624;28;20453;-60
2022/08/06 07:41:53;;;;;;;9.45;1.90;;;;;;;17.48;57.84;101116.13;5093043;28;20058;-60
2022/08/06 07:44:42;;;;;;;5.03;2.40;;;;;;;17.48;58.06;101116.97;5094602;28;20074;-63
2022/08/06 07:47:37;;;;;;;5.82;2.30;;;;;;;17.48;57.74;101119.59;5093626;28;20047;-61
2022/08/06 07:50:24;;;;;;;8.85;2.20;;;;;;;17.47;57.93;101119.59;5093102;28;20522;-62
2022/08/06 07:53:19;;;;;;;8.43;2.22;;;;;;;17.49;57.98;101115.25;5094483;28;20078;-62
2022/08/06 07:56:11;;;;;;;9.35;2.63;;;;;;;17.50;58.10;101119.63;5094512;28;20398;-60
2022/08/06 07:59:00;;;;;;;8.15;2.20;;;;;;;17.52;58.00;101117.84;5094414;28;20138;-60
2022/08/06 08:01:53;;;;;;;4.97;2.30;;;;;;;17.54;58.14;101110.88;5093930;28;20078;-59
2022/08/06 08:07:44;;;;;;;8.95;2.28;;;;;;;17.58;57.88;101125.75;5094022;28;20090;-60
2022/08/06 08:10:33;;;;;;;4.30;2.00;;;;;;;17.59;58.03;101127.50;5093314;28;20537;-60
2022/08/06 08:13:21;;;;;;;7.07;2.55;;;;;;;17.60;58.01;101120.50;5094291;28;20087;-62
2022/08/06 08:16:12;;;;;;;7.97;2.65;;;;;;;17.62;58.05;101121.41;5094092;28;20047;-61
2022/08/06 08:18:59;;;;;;;6.95;1.90;;;;;;;17.63;57.83;101123.16;5093160;28;20046;-61
2022/08/06 08:21:43;;;;;;;4.60;1.70;;;;;;;17.65;58.30;101126.66;5093646;28;20051;-61
2022/08/06 08:24:34;;;;;;;3.53;1.70;;;;;;;17.65;57.97;101117.06;5094003;28;20158;-62
2022/08/06 08:27:18;;;;;;;4.30;2.13;;;;;;;17.68;57.79;101117.91;5093598;28;20162;-61
2022/08/06 08:30:08;;;;;;;4.88;1.90;;;;;;;17.67;58.21;101117.06;5093820;28;20403;-61
2022/08/06 08:32:59;;;;;;;8.02;2.13;;;;;;;17.68;58.17;101113.56;5092892;28;20054;-62
2022/08/06 08:35:46;;;;;;;8.35;2.50;;;;;;;17.68;57.92;101113.56;5093542;28;20043;-61
2022/08/06 08:38:32;;;;;;;4.07;1.75;;;;;;;17.71;58.14;101110.06;5092957;28;20415;-62
2022/08/06 08:41:26;;;;;;;8.93;2.10;;;;;;;17.71;58.00;101110.97;5092168;28;20047;-61
2022/08/06 08:44:11;;;;;;;;;;;;;;;17.71;58.02;101107.44;5093891;28;20113;-61
2022/08/06 08:46:59;;;;;;;5.72;2.15;;;;;;;17.72;57.93;101114.44;5093697;28;20064;-62
2022/08/06 08:49:53;;;;;;;6.28;1.98;;;;;;;17.73;58.11;101116.19;5092719;28;20051;-61
2022/08/06 08:52:47;;;;;;;7.28;2.15;;;;;;;17.76;58.28;101113.59;5092675;28;20070;-61
2022/08/06 08:55:36;;;;;;;3.95;1.70;;;;;;;17.78;58.22;101114.47;5092786;28;20097;-62
2022/08/06 08:58:26;;;;;;;4.70;1.80;;;;;;;17.78;58.08;101117.97;5092790;28;20071;-62
2022/08/06 09:01:20;;;;;;;4.78;1.55;;;;;;;17.78;58.13;101115.34;5092383;28;20153;-62
2022/08/06 09:04:04;;;;;;;5.07;1.83;;;;;;;17.79;58.01;101113.63;5097740;28;20086;-61
2022/08/06 09:06:48;;;;;;;7.78;1.80;;;;;;;17.80;57.88;101110.13;5097314;28;20181;-62
2022/08/06 09:10:39;;;;;;;4.38;1.70;;;;;;;17.81;58.01;101107.50;5131828;27;20202;-61
2022/08/06 09:13:26;;;;;;;4.88;2.13;;;;;;;17.84;57.97;101116.25;5132105;28;20058;-60
2022/08/06 09:16:14;;;;;;;5.03;2.00;;;;;;;17.85;57.89;101118.84;5116649;28;20111;-62
2022/08/06 09:19:08;;;;;;;5.70;1.90;;;;;;;17.87;57.94;101116.25;5116469;28;20050;-61
2022/08/06 09:21:57;;;;;;;4.63;1.63;;;;;;;17.89;58.05;101112.75;5116538;28;20057;-60
2022/08/06 09:24:46;;;;;;;3.22;1.63;;;;;;;17.93;57.55;101116.25;5116384;28;20390;-60
2022/08/06 09:27:37;;;;;;;3.05;1.48;;;;;;;17.95;57.73;101119.75;5116212;28;20042;-61
2022/08/06 09:30:32;;;;;;;2.67;1.52;;;;;;;17.95;57.64;101120.66;5115903;28;20108;-61
2022/08/06 09:33:22;;;;;;;3.97;2.03;;;;;;;17.93;57.48;101122.41;5116328;28;20563;-61
2022/08/06 09:36:41;;;;;;;7.22;1.70;;;;;;;17.94;57.56;101118.00;5111567;27;20257;-62
2022/08/06 09:39:37;;;;;;;5.13;1.80;;;;;;;17.94;57.66;101123.25;5110707;28;20046;-62
2022/08/06 09:42:42;;;;;;;3.58;1.92;;;;;;;17.94;57.55;101123.25;5111435;28;20047;-63
2022/08/06 09:45:27;;;;;;;2.55;1.85;;;;;;;17.95;57.55;101120.66;5111502;28;20047;-62
2022/08/06 09:48:25;;;;;;;7.32;1.95;;;;;;;17.96;57.36;101117.16;5111208;28;20051;-61
2022/08/06 09:51:24;;;;;;;4.57;1.85;;;;;;;17.98;57.63;101105.84;5111222;28;20474;-61
2022/08/06 09:54:20;;;;;;;5.50;1.90;;;;;;;17.99;57.30;101118.03;5110373;28;20050;-61
2022/08/06 09:57:09;;;;;;;5.63;1.45;;;;;;;18.00;57.58;101117.19;5111190;28;20047;-61
2022/08/06 09:59:59;;;;;;;4.40;1.45;;;;;;;18.02;57.14;101118.06;5111310;28;20483;-60
2022/08/06 10:02:44;;;;;;;4.35;1.50;;;;;;;18.01;57.10;101114.56;5111143;28;20035;-61
2022/08/06 10:05:29;;;;;;;3.65;1.38;;;;;;;18.03;57.18;101118.09;5109948;28;20101;-62
2022/08/06 10:08:27;;;;;;;5.38;1.27;;;;;;;18.03;56.97;101112.84;5109891;28;20097;-60
2022/08/06 10:11:13;;;;;;;3.53;1.95;;;;;;;18.04;56.92;101117.22;5109995;28;20050;-61
2022/08/06 10:14:00;;;;;;;4.03;1.45;;;;;;;18.03;56.93;101114.56;5110442;28;20051;-61
2022/08/06 10:17:04;;;;;;;2.28;1.52;;;;;;;18.00;56.97;101127.66;5109794;28;20055;-61
2022/08/06 10:20:13;;;;;;;3.67;1.48;;;;;;;17.99;56.76;101116.31;5110496;28;20077;-61
2022/08/06 10:22:57;;;;;;;2.03;1.20;;;;;;;17.98;56.51;101129.44;5110763;28;20525;-61
2022/08/06 10:25:44;;;;;;;2.38;1.13;;;;;;;17.98;56.67;101117.19;5109719;28;20047;-61
2022/08/06 10:28:32;;;;;;;3.42;1.83;;;;;;;17.98;56.62;101111.94;5109334;28;20074;-61
2022/08/06 10:31:23;;;;;;;4.80;1.50;;;;;;;17.99;56.61;101116.31;5109732;28;20047;-61
2022/08/06 10:34:19;;;;;;;4.05;1.42;;;;;;;17.99;56.55;101115.44;5110213;28;20513;-62
2022/08/06 10:37:11;;;;;;;5.35;1.48;;;;;;;18.01;56.78;101108.44;5109599;28;20168;-61
2022/08/06 10:40:00;;;;;;;3.65;1.13;;;;;;;18.02;56.56;101107.56;5110551;28;20092;-61
2022/08/06 10:42:47;;;;;;;3.78;1.30;;;;;;;18.05;56.40;101104.97;5109270;28;20403;-61
2022/08/06 10:45:35;;;;;;;2.55;1.38;;;;;;;18.07;56.50;101108.47;5109282;28;20136;-61
2022/08/06 10:48:29;;;;;;;1.48;1.15;;;;;;;18.06;56.64;101104.09;5096657;28;20533;-60
2022/08/06 10:51:17;;;;;;;1.25;1.10;;;;;;;18.08;56.32;101097.97;5096545;28;20141;-61
2022/08/06 10:54:04;;;;;;;5.22;1.23;;;;;;;18.07;56.24;101101.47;5096356;28;20101;-61
2022/08/06 10:56:54;;;;;;;3.65;1.27;;;;;;;18.07;56.26;101097.97;5095622;28;20100;-61
2022/08/06 10:59:50;;;;;;;1.33;1.00;;;;;;;18.08;56.15;101102.34;5096201;28;20059;-61
2022/08/06 11:03:07;;;;;;;1.23;1.13;;;;;;;18.08;56.20;101100.59;5095524;28;20461;-61
2022/08/06 11:06:02;;;;;;;1.98;1.10;;;;;;;18.10;56.20;101105.84;5095426;28;20559;-61
2022/08/06 11:09:05;;;;;;;3.50;1.13;;;;;;;18.09;55.99;101096.22;5095346;28;20158;-61
2022/08/06 11:12:11;;;;;;;2.13;1.17;;;;;;;18.09;55.78;101101.47;5096255;28;20058;-62
2022/08/06 11:14:59;;;;;;;3.40;1.13;;;;;;;18.07;56.12;101096.22;5095200;28;20096;-61
2022/08/06 11:17:52;;;;;;;2.35;1.38;;;;;;;18.08;55.84;101099.72;5096158;28;20114;-60
2022/08/06 11:20:39;;;;;;;2.05;1.27;;;;;;;18.10;55.93;101103.22;5095964;28;20101;-61
2022/08/06 11:23:33;;;;;;;1.85;1.10;;;;;;;18.14;55.74;101099.72;5165241;27;20436;-61
2022/08/06 11:26:39;;;;;;;2.08;1.42;;;;;;;18.16;55.85;101092.72;5131162;28;20047;-62
2022/08/06 11:29:31;;;;;;;2.60;1.33;;;;;;;18.17;55.76;101091.84;5145815;27;20070;-61
2022/08/06 11:32:44;;;;;;;3.00;1.50;;;;;;;18.17;56.03;101086.59;5131179;28;20054;-61
2022/08/06 11:35:34;;;;;;;1.55;1.20;;;;;;;18.17;55.72;101089.22;5130658;28;20050;-61
2022/08/06 11:38:42;;;;;;;3.63;1.17;;;;;;;18.18;55.96;101088.34;5131803;28;20062;-60
2022/08/06 11:41:36;;;;;;;2.13;1.30;;;;;;;18.17;55.53;101078.75;5131404;28;20039;-61
2022/08/06 11:44:22;;;;;;;1.50;0.80;;;;;;;18.20;55.78;101077.88;5131749;28;20104;-60
2022/08/06 11:47:13;;;;;;;4.03;0.93;;;;;;;18.21;55.77;101079.63;5130843;28;20043;-61
2022/08/06 11:50:05;;;;;;;4.72;1.23;;;;;;;18.22;55.66;101077.00;5131414;28;20138;-61
2022/08/06 11:52:51;;;;;;;2.30;1.08;;;;;;;18.22;55.82;101074.38;5130456;28;20058;-61
2022/08/06 11:56:07;;;;;;;2.33;1.10;;;;;;;18.22;55.45;101079.63;5131543;28;20038;-61
2022/08/06 11:59:16;;;;;;;;;;;;;;;18.20;55.38;101075.25;5131904;28;20079;-61
2022/08/06 12:02:07;;;;;;;1.60;0.93;;;;;;;18.20;55.61;101078.75;5130814;28;20262;-61
2022/08/06 12:04:56;;;;;;;2.60;1.20;;;;;;;18.22;55.32;101071.75;5131332;28;20047;-62
2022/08/06 12:07:44;;;;;;;2.60;1.30;;;;;;;18.21;55.32;101075.25;5130325;28;20046;-62
2022/08/06 12:10:30;;;;;;;2.17;1.38;;;;;;;18.21;55.48;101080.50;5145262;27;20096;-61
2022/08/06 12:13:36;;;;;;;2.20;1.00;;;;;;;18.20;55.35;101078.75;5130892;28;20062;-62
2022/08/06 12:16:39;;;;;;;5.10;1.27;;;;;;;18.21;55.22;101071.78;5130221;28;20554;-62
2022/08/06 12:19:25;;;;;;;10.35;1.65;;;;;;;18.23;55.37;101070.00;5130021;28;20509;-61
2022/08/06 12:22:16;;;;;;;2.55;0.98;;;;;;;18.24;55.27;101064.78;5129698;28;20120;-62
2022/08/06 12:25:04;;;;;;;2.38;1.00;;;;;;;18.28;55.44;101065.63;5130978;28;20588;-60
2022/08/06 12:27:55;;;;;;;2.45;1.35;;;;;;;18.31;54.91;101054.25;5130816;28;20185;-62
2022/08/06 12:30:44;;;;;;;4.15;1.05;;;;;;;18.31;54.85;101049.00;5129691;28;20054;-62
2022/08/06 12:33:30;;;;;;;5.07;1.02;;;;;;;18.31;55.01;101049.00;5124214;28;20050;-62
2022/08/06 12:36:17;;;;;;;4.63;1.25;;;;;;;18.34;54.67;101044.66;5116049;28;20124;-62
2022/08/06 12:39:06;;;;;;;7.50;1.20;;;;;;;18.33;54.62;101050.78;5117060;28;20123;-62
2022/08/06 12:41:49;;;;;;;5.00;1.02;;;;;;;18.35;55.03;101049.03;5116116;28;20061;-62
2022/08/06 12:44:36;;;;;;;10.38;1.48;;;;;;;18.35;55.15;101046.41;5116632;28;20126;-61
2022/08/06 12:47:22;;;;;;;5.68;1.67;;;;;;;18.34;54.70;101044.66;5115807;28;20043;-62
2022/08/06 12:50:19;;;;;;;4.72;2.40;;;;;;;18.36;54.85;101044.66;5115810;28;20513;-62
2022/08/06 12:53:07;;;;;;;6.88;1.65;;;;;;;18.35;54.35;101046.41;5115704;28;20058;-62
2022/08/06 12:55:56;;;;;;;3.10;1.35;;;;;;;18.36;54.54;101032.41;5115553;28;20051;-62
2022/08/06 12:58:41;;;;;;;5.00;1.50;;;;;;;18.36;54.48;101036.78;5115506;28;20098;-62
2022/08/06 13:01:28;;;;;;;4.47;1.65;;;;;;;18.34;54.22;101039.41;5130181;27;20120;-62
2022/08/06 13:04:12;;;;;;;4.35;1.50;;;;;;;18.35;54.55;101030.66;5115567;28;20058;-61
2022/08/06 13:06:59;;;;;;;2.85;1.48;;;;;;;18.38;54.70;101029.78;5130651;27;20054;-62
2022/08/06 13:09:47;;;;;;;1.52;0.95;;;;;;;18.42;54.50;101026.28;5115318;28;20086;-62
2022/08/06 13:12:33;;;;;;;4.78;1.35;;;;;;;18.44;54.81;101027.16;5130027;27;20100;-62
2022/08/06 13:15:23;;;;;;;3.90;1.50;;;;;;;18.47;54.38;101026.28;5115724;28;20167;-61
2022/08/06 13:18:16;;;;;;;5.47;1.48;;;;;;;18.49;54.23;101028.00;5115081;28;20163;-62
2022/08/06 13:21:14;;;;;;;3.45;1.40;;;;;;;18.48;54.08;101031.50;5115091;28;20073;-62
2022/08/06 13:23:59;;;;;;;1.90;1.10;;;;;;;18.47;54.30;101021.03;5115582;28;20070;-62